Air Navigation Services of Czech Republic  
Last data update:  04.06.2020 09:56:26 UTC česká verze
   METEO Page displayed:  04.06.2020 09:57:21 UTC  
help
METAR EDDB 040950Z 13014KT 090V160 CAVOK 23/07 Q0995 TEMPO 13015G25KT=
METAR EDDC 040950Z 17011KT 140V200 CAVOK 23/10 Q0996 NOSIG=
METAR EDDE 040950Z 19003KT 160V220 9999 -RA FEW040 16/12 Q0996 NOSIG=
METAR EDDF 040950Z VRB03KT 4000 +SHRA SCT007 BKN012CB BKN022 15/14 Q0996 TEMPO 2500 BKN007=
METAR EDDM 040950Z 27006KT 240V330 9999 -RA SCT030 18/12 Q0999 NOSIG=
METAR EDDN 040950Z 16009KT 9999 -RA FEW018 SCT030 17/13 Q0997 NOSIG=
METAR EDDP 040950Z 20010KT CAVOK 20/12 Q0995 NOSIG=
METAR EDDT 040950Z 12013KT 090V170 CAVOK 25/08 Q0995 TEMPO 11015G25KT=
METAR EDQM 040950Z 18005KT 150V230 9999 -RA FEW049 OVC060 14/12 Q0997=
METAR EPBY 040930Z VRB06KT 9999 FEW047 18/05 Q1000=
METAR EPGD 040930Z 06008KT 030V120 9999 FEW028 16/07 Q1001=
METAR EPKK 040930Z 08008KT 030V120 CAVOK 19/06 Q1000=
METAR EPKT 040930Z 14007KT 080V180 CAVOK 19/05 Q1000=
METAR EPLL 040930Z 34006KT 280V030 CAVOK 19/07 Q1000=
METAR EPPO 040930Z 15010KT CAVOK 21/05 Q0999=
METAR EPRZ 040930Z 18007KT 120V220 9999 FEW040 18/09 Q1001=
METAR EPWA 040930Z VRB03KT 9999 FEW046TCU SCT046 18/06 Q1001 NOSIG=
METAR EPWR 040930Z 13013KT CAVOK 20/07 Q0999=
METAR LHBP 040930Z 19012KT 160V230 9999 BKN036 22/12 Q1002 NOSIG=
METAR LHSM 040915Z AUTO 23016KT 210V270 9000 NSC 22/14 Q1001=
METAR LKBC 041000Z AUTO 09003KT 350V140 9999 BKN130 21/13 Q0998=
METAR LKCV 040930Z 11006KT 070V150 CAVOK 21/11 Q0997 NOSIG RMK BLU BLU=
METAR LKKB 040930Z VRB02KT CAVOK 20/13 Q0997 NOSIG RMK BLU BLU=
METAR LKKU 040900Z 22010KT CAVOK 20/11 Q0999=
METAR LKKV 040930Z 20004KT 9999 -RA NSC 16/11 Q0998 RMK REG QNH 0995=
METAR LKLN 040930Z AUTO 22003KT 190V250 9999 FEW062 OVC082 17/12 Q0998=
METAR LKMT 040930Z VRB03KT 9999 FEW040 20/12 Q0999 NOSIG RMK REG QNH 0995=
METAR LKNA 040930Z 13009KT 060V160 9999 FEW030 BKN240 19/10 Q0999 NOSIG RMK BLU BLU=
METAR LKPD 040930Z 09005KT 060V130 9999 FEW037 BKN210 21/12 Q0997 NOSIG RMK BLU BLU=
METAR LKPJ 040930Z AUTO 13005KT 080V180 9999 FEW130 SCT230 19/11 Q0999=
METAR LKPR 040930Z 18007KT 9999 FEW034 20/12 Q0997 NOSIG RMK REG QNH 0995=
METAR LKTB 040930Z 12007KT 090V160 9999 FEW033 20/12 Q0999 NOSIG RMK REG QNH 0995=
METAR LKVO 040900Z 14006KT 080V190 CAVOK 20/12 Q0998=
METAR LOWI 040950Z VRB02KT 9999 FEW050 BKN100 17/12 Q0999 NOSIG=
METAR LOWL 040950Z 29005KT 240V330 9999 FEW032 21/11 Q0998 NOSIG=
METAR LOWS 040950Z 33008KT 9999 FEW070 BKN120 20/11 Q0999 NOSIG=
METAR LOWW 040950Z 12008KT 090V160 CAVOK 20/14 Q0999 NOSIG=
METAR LZIB 040930Z 10006KT 060V150 9999 FEW028 21/13 Q0999 NOSIG=
METAR LZKZ 040930Z 12003KT 090V150 9999 -SHRA SCT024TCU BKN030 15/12 Q1004 NOSIG=
METAR LZMC 040900Z 11004KT CAVOK 20/10 Q1000=
METAR LZPP 040930Z 12011KT 9999 FEW035 21/12 Q1000=
METAR LZSL 040930Z VRB02KT 9999 BKN037 19/10 Q1002=
METAR LZTT 040930Z 15006KT 9999 -RA FEW016 BKN076 12/10 Q1002 NOSIG=
METAR LZZI 040930Z 03003KT 300V080 9999 FEW037 19/09 Q1000=